NPT592 EGPH-EGKK
Flight info
| Callsign | NPT592 |
|---|---|
| Flight time | 1h 1m |
| Altitude | 35000 |
| Route | GOSAM P600 FENIK L612 NAVSO DCT ADZOP DCT EGTOC DCT KEPAD L151 DISIT |
| Aircraft | B738/M-SDE2E3FGHIRWXY/LB1 |
Departure
| Time | 2026-04-20 22:08 |
|---|---|
| Airport | Edinburgh Airport (EGPH) |
Arrival
| Time | 2026-04-20 23:09 |
|---|---|
| Airport | London Gatwick Airport (EGKK) |
| Time | Latitude | Longitude | Altitude | Speed | Heading |
|---|---|---|---|---|---|
| 2026-04-20 21:17 | 55.95204 | -3.35524 | 115 ft | 0 kts | 28° |
| 2026-04-20 21:31 | 55.95204 | -3.35523 | 115 ft | 0 kts | 32° |
| 2026-04-20 21:54 | 55.95189 | -3.35539 | 112 ft | 4 kts | 19° |
| 2026-04-20 21:55 | 55.95164 | -3.35545 | 112 ft | 4 kts | 344° |
| 2026-04-20 21:55 | 55.95143 | -3.35523 | 113 ft | 3 kts | 302° |
| 2026-04-20 21:55 | 55.95140 | -3.35517 | 111 ft | 0 kts | 298° |
| 2026-04-20 21:59 | 55.95152 | -3.35554 | 112 ft | 8 kts | 298° |
| 2026-04-20 21:59 | 55.95192 | -3.35689 | 115 ft | 16 kts | 298° |
| 2026-04-20 21:59 | 55.95250 | -3.35826 | 113 ft | 11 kts | 321° |
| 2026-04-20 22:00 | 55.95242 | -3.35959 | 113 ft | 13 kts | 240° |
| 2026-04-20 22:00 | 55.95187 | -3.36124 | 115 ft | 18 kts | 239° |
| 2026-04-20 22:00 | 55.95113 | -3.36344 | 113 ft | 23 kts | 238° |
| 2026-04-20 22:00 | 55.95025 | -3.36602 | 114 ft | 25 kts | 239° |
| 2026-04-20 22:01 | 55.94937 | -3.36862 | 112 ft | 24 kts | 239° |
| 2026-04-20 22:01 | 55.94854 | -3.37105 | 114 ft | 23 kts | 238° |
| 2026-04-20 22:01 | 55.94774 | -3.37342 | 114 ft | 22 kts | 239° |
| 2026-04-20 22:01 | 55.94697 | -3.37572 | 114 ft | 21 kts | 239° |
| 2026-04-20 22:02 | 55.94621 | -3.37795 | 113 ft | 21 kts | 239° |
| 2026-04-20 22:02 | 55.94549 | -3.38009 | 113 ft | 20 kts | 239° |
| 2026-04-20 22:02 | 55.94477 | -3.38222 | 113 ft | 19 kts | 239° |
| 2026-04-20 22:02 | 55.94409 | -3.38422 | 114 ft | 19 kts | 239° |
| 2026-04-20 22:03 | 55.94342 | -3.38619 | 114 ft | 18 kts | 239° |
| 2026-04-20 22:03 | 55.94281 | -3.38801 | 114 ft | 13 kts | 250° |
| 2026-04-20 22:03 | 55.94330 | -3.38915 | 114 ft | 13 kts | 328° |
| 2026-04-20 22:03 | 55.94404 | -3.38980 | 113 ft | 10 kts | 0° |
| 2026-04-20 22:04 | 55.94429 | -3.38933 | 113 ft | 0 kts | 58° |
| 2026-04-20 22:07 | 55.94450 | -3.38869 | 113 ft | 25 kts | 59° |
| 2026-04-20 22:07 | 55.94672 | -3.38215 | 114 ft | 97 kts | 59° |
| 2026-04-20 22:07 | 55.95125 | -3.36868 | 143 ft | 151 kts | 59° |
| 2026-04-20 22:08 | 55.95696 | -3.35279 | 838 ft | 151 kts | 54° |
| 2026-04-20 22:08 | 55.96359 | -3.33835 | 1646 ft | 151 kts | 45° |
| 2026-04-20 22:08 | 55.97148 | -3.32573 | 2394 ft | 151 kts | 45° |
| 2026-04-20 22:08 | 55.97928 | -3.31301 | 3138 ft | 153 kts | 45° |
| 2026-04-20 22:09 | 55.98716 | -3.30016 | 3859 ft | 156 kts | 45° |
| 2026-04-20 22:09 | 55.99602 | -3.28644 | 4180 ft | 185 kts | 36° |
| 2026-04-20 22:09 | 56.00905 | -3.27877 | 4394 ft | 215 kts | 5° |
| 2026-04-20 22:09 | 56.02434 | -3.28578 | 4605 ft | 245 kts | 330° |
| 2026-04-20 22:10 | 56.03578 | -3.31010 | 4911 ft | 272 kts | 290° |
| 2026-04-20 22:10 | 56.03692 | -3.34386 | 5616 ft | 279 kts | 254° |
| 2026-04-20 22:10 | 56.02999 | -3.37631 | 6248 ft | 280 kts | 247° |
| 2026-04-20 22:10 | 56.02338 | -3.40926 | 6480 ft | 284 kts | 251° |
| 2026-04-20 22:11 | 56.01755 | -3.44317 | 6526 ft | 286 kts | 253° |
| 2026-04-20 22:11 | 56.01218 | -3.47758 | 7169 ft | 287 kts | 254° |
| 2026-04-20 22:11 | 56.00714 | -3.51194 | 8063 ft | 286 kts | 254° |
| 2026-04-20 22:11 | 56.00218 | -3.54651 | 8829 ft | 289 kts | 254° |
| 2026-04-20 22:12 | 55.99718 | -3.58149 | 9584 ft | 293 kts | 254° |
| 2026-04-20 22:12 | 55.99212 | -3.61693 | 10341 ft | 296 kts | 253° |
| 2026-04-20 22:12 | 55.98694 | -3.65297 | 10848 ft | 308 kts | 253° |
| 2026-04-20 22:12 | 55.98138 | -3.69150 | 11013 ft | 331 kts | 253° |
| 2026-04-20 22:13 | 55.97547 | -3.73253 | 11248 ft | 350 kts | 253° |
| 2026-04-20 22:13 | 55.96934 | -3.77507 | 11764 ft | 357 kts | 253° |
| 2026-04-20 22:13 | 55.96313 | -3.81828 | 12438 ft | 361 kts | 253° |
| 2026-04-20 22:13 | 55.95684 | -3.86186 | 13144 ft | 365 kts | 253° |
| 2026-04-20 22:14 | 55.95045 | -3.90594 | 13844 ft | 369 kts | 253° |
| 2026-04-20 22:14 | 55.94394 | -3.95056 | 14539 ft | 374 kts | 253° |
| 2026-04-20 22:14 | 55.93577 | -3.99461 | 15232 ft | 375 kts | 241° |
| 2026-04-20 22:14 | 55.92135 | -4.03307 | 15978 ft | 373 kts | 226° |
| 2026-04-20 22:15 | 55.90257 | -4.06465 | 16706 ft | 371 kts | 213° |
| 2026-04-20 22:15 | 55.88157 | -4.09046 | 17416 ft | 373 kts | 210° |
| 2026-04-20 22:15 | 55.85978 | -4.11603 | 18108 ft | 377 kts | 210° |
| 2026-04-20 22:15 | 55.83781 | -4.14199 | 18796 ft | 381 kts | 210° |
| 2026-04-20 22:16 | 55.81572 | -4.16848 | 19391 ft | 385 kts | 211° |
| 2026-04-20 22:16 | 55.79352 | -4.19530 | 19996 ft | 388 kts | 211° |
| 2026-04-20 22:16 | 55.77114 | -4.22262 | 20593 ft | 392 kts | 211° |
| 2026-04-20 22:16 | 55.74855 | -4.24983 | 21184 ft | 393 kts | 207° |
| 2026-04-20 22:17 | 55.72309 | -4.26617 | 21704 ft | 389 kts | 184° |
| 2026-04-20 22:17 | 55.69629 | -4.26524 | 22322 ft | 386 kts | 167° |
| 2026-04-20 22:17 | 55.67088 | -4.25059 | 22841 ft | 386 kts | 152° |
| 2026-04-20 22:17 | 55.64716 | -4.22790 | 23393 ft | 389 kts | 149° |
| 2026-04-20 22:18 | 55.62358 | -4.20401 | 23914 ft | 393 kts | 148° |
| 2026-04-20 22:18 | 55.59979 | -4.17986 | 24347 ft | 396 kts | 149° |
| 2026-04-20 22:18 | 55.57569 | -4.15575 | 24755 ft | 400 kts | 149° |
| 2026-04-20 22:18 | 55.55129 | -4.13171 | 25169 ft | 403 kts | 149° |
| 2026-04-20 22:19 | 55.52669 | -4.10771 | 25629 ft | 405 kts | 150° |
| 2026-04-20 22:19 | 55.50194 | -4.08365 | 26038 ft | 408 kts | 149° |
| 2026-04-20 22:19 | 55.47692 | -4.05935 | 26360 ft | 413 kts | 150° |
| 2026-04-20 22:19 | 55.45161 | -4.03473 | 26724 ft | 417 kts | 150° |
| 2026-04-20 22:20 | 55.42606 | -4.00990 | 27055 ft | 421 kts | 150° |
| 2026-04-20 22:20 | 55.40029 | -3.98489 | 27430 ft | 425 kts | 151° |
| 2026-04-20 22:20 | 55.37424 | -3.95967 | 27686 ft | 430 kts | 151° |
| 2026-04-20 22:20 | 55.34788 | -3.93417 | 28027 ft | 433 kts | 151° |
| 2026-04-20 22:21 | 55.32153 | -3.90874 | 28548 ft | 432 kts | 151° |
| 2026-04-20 22:21 | 55.29510 | -3.88327 | 28885 ft | 435 kts | 151° |
| 2026-04-20 22:21 | 55.26838 | -3.85755 | 29067 ft | 441 kts | 151° |
| 2026-04-20 22:21 | 55.24142 | -3.83164 | 29431 ft | 443 kts | 151° |
| 2026-04-20 22:22 | 55.21419 | -3.80807 | 29826 ft | 444 kts | 158° |
| 2026-04-20 22:22 | 55.18476 | -3.79077 | 30058 ft | 448 kts | 163° |
| 2026-04-20 22:22 | 55.15476 | -3.77468 | 30198 ft | 454 kts | 163° |
| 2026-04-20 22:22 | 55.12448 | -3.75866 | 30563 ft | 454 kts | 163° |
| 2026-04-20 22:23 | 55.09435 | -3.74266 | 30976 ft | 452 kts | 163° |
| 2026-04-20 22:23 | 55.06424 | -3.72653 | 31267 ft | 453 kts | 163° |
| 2026-04-20 22:23 | 55.03404 | -3.71022 | 31556 ft | 454 kts | 163° |
| 2026-04-20 22:23 | 55.00390 | -3.69387 | 31877 ft | 454 kts | 163° |
| 2026-04-20 22:24 | 54.97376 | -3.67748 | 32207 ft | 454 kts | 163° |
| 2026-04-20 22:24 | 54.94355 | -3.66105 | 32508 ft | 455 kts | 163° |
| 2026-04-20 22:24 | 54.91318 | -3.64456 | 32621 ft | 460 kts | 163° |
| 2026-04-20 22:24 | 54.88257 | -3.62797 | 32899 ft | 460 kts | 163° |
| 2026-04-20 22:25 | 54.85210 | -3.61147 | 33336 ft | 458 kts | 163° |
| 2026-04-20 22:25 | 54.82168 | -3.59503 | 33607 ft | 459 kts | 163° |
| 2026-04-20 22:25 | 54.79115 | -3.57856 | 33862 ft | 460 kts | 163° |
| 2026-04-20 22:25 | 54.76054 | -3.56207 | 34101 ft | 461 kts | 163° |
| 2026-04-20 22:26 | 54.72997 | -3.54564 | 34475 ft | 459 kts | 163° |
| 2026-04-20 22:26 | 54.69952 | -3.52930 | 34753 ft | 458 kts | 163° |
| 2026-04-20 22:26 | 54.66905 | -3.51297 | 34986 ft | 459 kts | 163° |
| 2026-04-20 22:27 | 54.60798 | -3.48033 | 35382 ft | 460 kts | 163° |
| 2026-04-20 22:27 | 54.57728 | -3.46395 | 35371 ft | 464 kts | 163° |
| 2026-04-20 22:27 | 54.51548 | -3.43108 | 35375 ft | 462 kts | 163° |
| 2026-04-20 22:28 | 54.45468 | -3.39882 | 35379 ft | 459 kts | 163° |
| 2026-04-20 22:28 | 54.39369 | -3.36658 | 35378 ft | 460 kts | 163° |
| 2026-04-20 22:29 | 54.33205 | -3.33412 | 35385 ft | 468 kts | 164° |
| 2026-04-20 22:29 | 54.26950 | -3.30126 | 35375 ft | 471 kts | 163° |
| 2026-04-20 22:30 | 54.20754 | -3.26878 | 35365 ft | 462 kts | 164° |
| 2026-04-20 22:30 | 54.14485 | -3.24788 | 35375 ft | 459 kts | 177° |
| 2026-04-20 22:31 | 54.08094 | -3.23955 | 35369 ft | 462 kts | 176° |
| 2026-04-20 22:31 | 54.01671 | -3.22947 | 35362 ft | 465 kts | 174° |
| 2026-04-20 22:32 | 53.95418 | -3.19985 | 35371 ft | 470 kts | 160° |
| 2026-04-20 22:32 | 53.89327 | -3.15930 | 35357 ft | 471 kts | 160° |
| 2026-04-20 22:33 | 53.83228 | -3.11899 | 35368 ft | 470 kts | 160° |
| 2026-04-20 22:33 | 53.77122 | -3.07933 | 35351 ft | 469 kts | 160° |
| 2026-04-20 22:34 | 53.71031 | -3.04042 | 35351 ft | 467 kts | 161° |
| 2026-04-20 22:34 | 53.64960 | -3.00199 | 35346 ft | 465 kts | 161° |
| 2026-04-20 22:35 | 53.58908 | -2.96358 | 35350 ft | 464 kts | 161° |
| 2026-04-20 22:35 | 53.52870 | -2.92531 | 35352 ft | 463 kts | 161° |
| 2026-04-20 22:36 | 53.46838 | -2.88722 | 35357 ft | 463 kts | 161° |
| 2026-04-20 22:36 | 53.40800 | -2.84921 | 35375 ft | 463 kts | 161° |
| 2026-04-20 22:37 | 53.34765 | -2.81134 | 35355 ft | 464 kts | 161° |
| 2026-04-20 22:37 | 53.28754 | -2.77374 | 35357 ft | 464 kts | 161° |
| 2026-04-20 22:38 | 53.22694 | -2.73593 | 35357 ft | 465 kts | 161° |
| 2026-04-20 22:38 | 53.16622 | -2.69818 | 35353 ft | 466 kts | 161° |
| 2026-04-20 22:39 | 53.10532 | -2.66042 | 35355 ft | 467 kts | 161° |
| 2026-04-20 22:39 | 53.04427 | -2.62270 | 35349 ft | 468 kts | 162° |
| 2026-04-20 22:40 | 52.98312 | -2.58501 | 35350 ft | 469 kts | 162° |
| 2026-04-20 22:40 | 52.92188 | -2.54740 | 35338 ft | 470 kts | 162° |
| 2026-04-20 22:41 | 52.89097 | -2.52847 | 34836 ft | 477 kts | 162° |
| 2026-04-20 22:41 | 52.85985 | -2.50943 | 34260 ft | 476 kts | 162° |
| 2026-04-20 22:41 | 52.82879 | -2.49039 | 33595 ft | 475 kts | 162° |
| 2026-04-20 22:41 | 52.79877 | -2.46803 | 33109 ft | 473 kts | 153° |
| 2026-04-20 22:42 | 52.77110 | -2.43878 | 32594 ft | 472 kts | 148° |
| 2026-04-20 22:42 | 52.74419 | -2.40803 | 32108 ft | 468 kts | 147° |
| 2026-04-20 22:42 | 52.71747 | -2.37766 | 31615 ft | 465 kts | 148° |
| 2026-04-20 22:42 | 52.69075 | -2.34800 | 31151 ft | 461 kts | 149° |
| 2026-04-20 22:43 | 52.66411 | -2.31888 | 30706 ft | 458 kts | 149° |
| 2026-04-20 22:43 | 52.63756 | -2.28991 | 30069 ft | 459 kts | 149° |
| 2026-04-20 22:43 | 52.61110 | -2.26085 | 29556 ft | 455 kts | 149° |
| 2026-04-20 22:43 | 52.58494 | -2.23207 | 29071 ft | 450 kts | 149° |
| 2026-04-20 22:44 | 52.55910 | -2.20366 | 28621 ft | 445 kts | 149° |
| 2026-04-20 22:44 | 52.53349 | -2.17557 | 28162 ft | 440 kts | 149° |
| 2026-04-20 22:44 | 52.51668 | -2.15717 | 27854 ft | 437 kts | 149° |
| 2026-04-20 22:44 | 52.49147 | -2.12964 | 27375 ft | 433 kts | 151° |
| 2026-04-20 22:45 | 52.46587 | -2.10408 | 26935 ft | 429 kts | 151° |
| 2026-04-20 22:45 | 52.44101 | -2.07738 | 26497 ft | 426 kts | 148° |
| 2026-04-20 22:45 | 52.41677 | -2.04961 | 26065 ft | 423 kts | 147° |
| 2026-04-20 22:45 | 52.38491 | -2.01357 | 25593 ft | 414 kts | 148° |
| 2026-04-20 22:46 | 52.36911 | -1.99619 | 25804 ft | 394 kts | 149° |
| 2026-04-20 22:46 | 52.34697 | -1.97212 | 25812 ft | 374 kts | 149° |
| 2026-04-20 22:46 | 52.32553 | -1.94901 | 25467 ft | 368 kts | 149° |
| 2026-04-20 22:46 | 52.30366 | -1.92548 | 24417 ft | 388 kts | 148° |
| 2026-04-20 22:47 | 52.28068 | -1.90072 | 23664 ft | 397 kts | 148° |
| 2026-04-20 22:47 | 52.25773 | -1.87594 | 23114 ft | 396 kts | 149° |
| 2026-04-20 22:47 | 52.23480 | -1.85135 | 22700 ft | 392 kts | 149° |
| 2026-04-20 22:47 | 52.21234 | -1.82736 | 22277 ft | 390 kts | 149° |
| 2026-04-20 22:48 | 52.18973 | -1.80325 | 21851 ft | 387 kts | 149° |
| 2026-04-20 22:48 | 52.16725 | -1.77931 | 21442 ft | 384 kts | 149° |
| 2026-04-20 22:48 | 52.14500 | -1.75561 | 21043 ft | 381 kts | 148° |
| 2026-04-20 22:48 | 52.12282 | -1.73196 | 20557 ft | 377 kts | 148° |
| 2026-04-20 22:49 | 52.10102 | -1.70878 | 20219 ft | 373 kts | 148° |
| 2026-04-20 22:49 | 52.07946 | -1.68590 | 19944 ft | 369 kts | 148° |
| 2026-04-20 22:49 | 52.05802 | -1.66315 | 19627 ft | 368 kts | 148° |
| 2026-04-20 22:49 | 52.03649 | -1.64032 | 19315 ft | 371 kts | 148° |
| 2026-04-20 22:50 | 52.01479 | -1.61734 | 18978 ft | 374 kts | 148° |
| 2026-04-20 22:50 | 51.99297 | -1.59425 | 18647 ft | 373 kts | 148° |
| 2026-04-20 22:50 | 51.97126 | -1.57130 | 18288 ft | 371 kts | 148° |
| 2026-04-20 22:50 | 51.94973 | -1.54857 | 17938 ft | 368 kts | 148° |
| 2026-04-20 22:51 | 51.92839 | -1.52607 | 17601 ft | 365 kts | 148° |
| 2026-04-20 22:51 | 51.90723 | -1.50378 | 17304 ft | 361 kts | 148° |
| 2026-04-20 22:51 | 51.88624 | -1.48170 | 16993 ft | 358 kts | 148° |
| 2026-04-20 22:51 | 51.86539 | -1.45980 | 16671 ft | 356 kts | 148° |
| 2026-04-20 22:52 | 51.84471 | -1.43810 | 16371 ft | 353 kts | 147° |
| 2026-04-20 22:52 | 51.82421 | -1.41660 | 16065 ft | 350 kts | 147° |
| 2026-04-20 22:52 | 51.80384 | -1.39526 | 15764 ft | 348 kts | 147° |
| 2026-04-20 22:52 | 51.78355 | -1.37402 | 15458 ft | 347 kts | 147° |
| 2026-04-20 22:53 | 51.76298 | -1.35371 | 15343 ft | 348 kts | 158° |
| 2026-04-20 22:53 | 51.74043 | -1.34016 | 15315 ft | 345 kts | 150° |
| 2026-04-20 22:53 | 51.72020 | -1.32047 | 15316 ft | 334 kts | 146° |
| 2026-04-20 22:53 | 51.70177 | -1.29901 | 15303 ft | 320 kts | 143° |
| 2026-04-20 22:54 | 51.68437 | -1.27787 | 15293 ft | 307 kts | 143° |
| 2026-04-20 22:54 | 51.66752 | -1.25795 | 15298 ft | 294 kts | 144° |
| 2026-04-20 22:54 | 51.65101 | -1.23913 | 15306 ft | 290 kts | 145° |
| 2026-04-20 22:54 | 51.63380 | -1.22009 | 15347 ft | 311 kts | 146° |
| 2026-04-20 22:55 | 51.61571 | -1.20050 | 15287 ft | 313 kts | 147° |
| 2026-04-20 22:55 | 51.59749 | -1.18108 | 15002 ft | 314 kts | 147° |
| 2026-04-20 22:55 | 51.57922 | -1.16182 | 14656 ft | 314 kts | 147° |
| 2026-04-20 22:55 | 51.56096 | -1.14273 | 14306 ft | 313 kts | 147° |
| 2026-04-20 22:56 | 51.54270 | -1.12373 | 13971 ft | 312 kts | 147° |
| 2026-04-20 22:56 | 51.52452 | -1.10488 | 13628 ft | 310 kts | 147° |
| 2026-04-20 22:56 | 51.50643 | -1.08618 | 13289 ft | 308 kts | 147° |
| 2026-04-20 22:56 | 51.48848 | -1.06765 | 12967 ft | 306 kts | 147° |
| 2026-04-20 22:57 | 51.47062 | -1.04924 | 12627 ft | 305 kts | 147° |
| 2026-04-20 22:57 | 51.45279 | -1.03089 | 12237 ft | 305 kts | 147° |
| 2026-04-20 22:57 | 51.43497 | -1.01257 | 11929 ft | 303 kts | 147° |
| 2026-04-20 22:57 | 51.41732 | -0.99444 | 11621 ft | 301 kts | 146° |
| 2026-04-20 22:58 | 51.39968 | -0.97634 | 11248 ft | 301 kts | 146° |
| 2026-04-20 22:58 | 51.38208 | -0.95829 | 10940 ft | 299 kts | 146° |
| 2026-04-20 22:58 | 51.36484 | -0.94065 | 10654 ft | 290 kts | 146° |
| 2026-04-20 22:58 | 51.34783 | -0.92324 | 10138 ft | 290 kts | 146° |
| 2026-04-20 22:59 | 51.33078 | -0.90581 | 9565 ft | 293 kts | 146° |
| 2026-04-20 22:59 | 51.31366 | -0.88833 | 9280 ft | 288 kts | 146° |
| 2026-04-20 22:59 | 51.29695 | -0.87128 | 8809 ft | 284 kts | 146° |
| 2026-04-20 22:59 | 51.28025 | -0.85427 | 8273 ft | 284 kts | 145° |
| 2026-04-20 23:00 | 51.26357 | -0.83727 | 7797 ft | 285 kts | 145° |
| 2026-04-20 23:00 | 51.24691 | -0.82031 | 7558 ft | 282 kts | 144° |
| 2026-04-20 23:00 | 51.23065 | -0.80378 | 7353 ft | 280 kts | 144° |
| 2026-04-20 23:00 | 51.21420 | -0.78706 | 7306 ft | 282 kts | 144° |
| 2026-04-20 23:01 | 51.19772 | -0.77034 | 7231 ft | 278 kts | 144° |
| 2026-04-20 23:01 | 51.18163 | -0.75404 | 7159 ft | 268 kts | 144° |
| 2026-04-20 23:01 | 51.16635 | -0.73858 | 7035 ft | 253 kts | 144° |
| 2026-04-20 23:01 | 51.15178 | -0.72385 | 6809 ft | 245 kts | 144° |
| 2026-04-20 23:02 | 51.13741 | -0.70959 | 6443 ft | 243 kts | 144° |
| 2026-04-20 23:02 | 51.12301 | -0.69554 | 6052 ft | 242 kts | 144° |
| 2026-04-20 23:02 | 51.10864 | -0.68166 | 5672 ft | 241 kts | 144° |
| 2026-04-20 23:02 | 51.09433 | -0.66798 | 5303 ft | 239 kts | 144° |
| 2026-04-20 23:03 | 51.08021 | -0.65415 | 4926 ft | 236 kts | 137° |
| 2026-04-20 23:03 | 51.07050 | -0.63446 | 4517 ft | 223 kts | 104° |
| 2026-04-20 23:03 | 51.06945 | -0.61088 | 4145 ft | 212 kts | 73° |
| 2026-04-20 23:03 | 51.07419 | -0.58888 | 3785 ft | 211 kts | 66° |
| 2026-04-20 23:04 | 51.07969 | -0.56731 | 3554 ft | 210 kts | 66° |
| 2026-04-20 23:04 | 51.08522 | -0.54598 | 3330 ft | 208 kts | 66° |
| 2026-04-20 23:04 | 51.09080 | -0.52479 | 3089 ft | 206 kts | 66° |
| 2026-04-20 23:04 | 51.09641 | -0.50363 | 3038 ft | 208 kts | 65° |
| 2026-04-20 23:05 | 51.10206 | -0.48236 | 3003 ft | 208 kts | 66° |
| 2026-04-20 23:05 | 51.10768 | -0.46127 | 2991 ft | 205 kts | 65° |
| 2026-04-20 23:05 | 51.11294 | -0.44096 | 2993 ft | 191 kts | 69° |
| 2026-04-20 23:05 | 51.11635 | -0.42147 | 2960 ft | 176 kts | 74° |
| 2026-04-20 23:06 | 51.11893 | -0.40300 | 2789 ft | 165 kts | 75° |
| 2026-04-20 23:06 | 51.12123 | -0.38610 | 2581 ft | 152 kts | 75° |
| 2026-04-20 23:06 | 51.12341 | -0.37013 | 2385 ft | 145 kts | 75° |
| 2026-04-20 23:06 | 51.12553 | -0.35468 | 2199 ft | 141 kts | 74° |
| 2026-04-20 23:07 | 51.12761 | -0.33951 | 1997 ft | 141 kts | 74° |
| 2026-04-20 23:07 | 51.12971 | -0.32422 | 1799 ft | 143 kts | 75° |
| 2026-04-20 23:07 | 51.13186 | -0.30861 | 1588 ft | 144 kts | 74° |
| 2026-04-20 23:07 | 51.13394 | -0.29339 | 1387 ft | 138 kts | 74° |
| 2026-04-20 23:08 | 51.13597 | -0.27862 | 1144 ft | 138 kts | 73° |
| 2026-04-20 23:08 | 51.13822 | -0.26341 | 1008 ft | 140 kts | 76° |
| 2026-04-20 23:08 | 51.14019 | -0.24802 | 777 ft | 145 kts | 73° |
| 2026-04-20 23:08 | 51.14249 | -0.23229 | 595 ft | 146 kts | 76° |
| 2026-04-20 23:09 | 51.14456 | -0.21649 | 384 ft | 145 kts | 75° |
| 2026-04-20 23:09 | 51.14666 | -0.20095 | 215 ft | 140 kts | 73° |
| 2026-04-20 23:09 | 51.14849 | -0.18795 | 205 ft | 99 kts | 78° |
| 2026-04-20 23:09 | 51.14954 | -0.18024 | 207 ft | 30 kts | 67° |
| 2026-04-20 23:10 | 51.15049 | -0.17817 | 207 ft | 9 kts | 50° |
| 2026-04-20 23:10 | 51.15098 | -0.17758 | 205 ft | 9 kts | 9° |
| 2026-04-20 23:10 | 51.15114 | -0.17760 | 205 ft | 1 kts | 352° |
| 2026-04-20 23:10 | 51.15147 | -0.17767 | 204 ft | 7 kts | 353° |
| 2026-04-20 23:11 | 51.15195 | -0.17776 | 204 ft | 7 kts | 353° |
| 2026-04-20 23:11 | 51.15244 | -0.17798 | 212 ft | 8 kts | 329° |
| 2026-04-20 23:11 | 51.15247 | -0.17875 | 206 ft | 8 kts | 244° |
| 2026-04-20 23:11 | 51.15232 | -0.17957 | 207 ft | 8 kts | 257° |
| 2026-04-20 23:12 | 51.15221 | -0.18038 | 206 ft | 7 kts | 258° |
| 2026-04-20 23:12 | 51.15208 | -0.18130 | 204 ft | 10 kts | 258° |
| 2026-04-20 23:12 | 51.15228 | -0.18221 | 206 ft | 10 kts | 337° |
| 2026-04-20 23:12 | 51.15300 | -0.18249 | 210 ft | 11 kts | 348° |
| 2026-04-20 23:13 | 51.15372 | -0.18275 | 204 ft | 11 kts | 347° |
| 2026-04-20 23:13 | 51.15444 | -0.18299 | 214 ft | 10 kts | 348° |
| 2026-04-20 23:13 | 51.15512 | -0.18323 | 208 ft | 10 kts | 347° |
| 2026-04-20 23:13 | 51.15579 | -0.18346 | 212 ft | 10 kts | 348° |
| 2026-04-20 23:14 | 51.15635 | -0.18392 | 204 ft | 9 kts | 292° |
| 2026-04-20 23:14 | 51.15627 | -0.18488 | 208 ft | 9 kts | 258° |
| 2026-04-20 23:14 | 51.15615 | -0.18581 | 211 ft | 8 kts | 257° |
| 2026-04-20 23:14 | 51.15602 | -0.18675 | 211 ft | 9 kts | 258° |
| 2026-04-20 23:15 | 51.15589 | -0.18771 | 214 ft | 9 kts | 257° |
| 2026-04-20 23:15 | 51.15617 | -0.18821 | 213 ft | 7 kts | 4° |
| 2026-04-20 23:15 | 51.15637 | -0.18823 | 209 ft | 2 kts | 351° |
| 2026-04-20 23:15 | 51.15648 | -0.18826 | 206 ft | 1 kts | 349° |
| 2026-04-20 23:16 | 51.15657 | -0.18829 | 209 ft | 1 kts | 348° |
| 2026-04-20 23:16 | 51.15662 | -0.18830 | 210 ft | 0 kts | 348° |
| 2026-04-20 23:37 | 51.15660 | -0.18829 | 212 ft | 0 kts | 348° |